sensor_id;sensor_type;location;lat;lon;timestamp;temperature;humidity
3086;DHT22;52812;48.960;9.108;2024-02-04T00:02:23;8.20;99.90
3086;DHT22;52812;48.960;9.108;2024-02-04T00:04:53;8.20;99.90
3086;DHT22;52812;48.960;9.108;2024-02-04T00:07:18;8.20;99.90
3086;DHT22;52812;48.960;9.108;2024-02-04T00:09:44;8.20;99.90
3086;DHT22;52812;48.960;9.108;2024-02-04T00:12:10;8.10;99.90
3086;DHT22;52812;48.960;9.108;2024-02-04T00:14:35;8.10;99.90
3086;DHT22;52812;48.960;9.108;2024-02-04T00:17:01;8.10;99.90
3086;DHT22;52812;48.960;9.108;2024-02-04T00:19:27;8.00;99.90
3086;DHT22;52812;48.960;9.108;2024-02-04T00:21:53;8.00;99.90
3086;DHT22;52812;48.960;9.108;2024-02-04T00:24:19;7.90;99.90
3086;DHT22;52812;48.960;9.108;2024-02-04T00:26:45;7.90;99.90
3086;DHT22;52812;48.960;9.108;2024-02-04T00:29:10;7.90;99.90
3086;DHT22;52812;48.960;9.108;2024-02-04T00:31:36;7.80;99.90
3086;DHT22;52812;48.960;9.108;2024-02-04T00:34:02;7.80;99.90
3086;DHT22;52812;48.960;9.108;2024-02-04T00:36:27;7.90;99.90
3086;DHT22;52812;48.960;9.108;2024-02-04T00:38:53;7.90;99.90
3086;DHT22;52812;48.960;9.108;2024-02-04T00:41:19;8.00;99.90
3086;DHT22;52812;48.960;9.108;2024-02-04T00:43:44;8.00;99.90
3086;DHT22;52812;48.960;9.108;2024-02-04T00:46:10;8.00;99.90
3086;DHT22;52812;48.960;9.108;2024-02-04T00:48:36;8.00;99.90
3086;DHT22;52812;48.960;9.108;2024-02-04T00:51:03;8.00;99.90
3086;DHT22;52812;48.960;9.108;2024-02-04T00:53:29;8.00;99.90
3086;DHT22;52812;48.960;9.108;2024-02-04T00:56:03;8.10;99.90
3086;DHT22;52812;48.960;9.108;2024-02-04T00:58:29;8.00;99.90
3086;DHT22;52812;48.960;9.108;2024-02-04T01:00:55;8.00;99.90
3086;DHT22;52812;48.960;9.108;2024-02-04T01:03:20;8.00;99.90
3086;DHT22;52812;48.960;9.108;2024-02-04T01:05:46;8.00;99.90
3086;DHT22;52812;48.960;9.108;2024-02-04T01:08:12;7.90;99.90
3086;DHT22;52812;48.960;9.108;2024-02-04T01:10:38;8.00;99.90
3086;DHT22;52812;48.960;9.108;2024-02-04T01:13:04;7.90;99.90
3086;DHT22;52812;48.960;9.108;2024-02-04T01:15:29;7.90;99.90
3086;DHT22;52812;48.960;9.108;2024-02-04T01:17:55;8.00;99.90
3086;DHT22;52812;48.960;9.108;2024-02-04T01:20:21;7.90;99.90
3086;DHT22;52812;48.960;9.108;2024-02-04T01:22:46;7.80;99.90
3086;DHT22;52812;48.960;9.108;2024-02-04T01:25:12;7.80;99.90
3086;DHT22;52812;48.960;9.108;2024-02-04T01:27:38;7.70;99.90
3086;DHT22;52812;48.960;9.108;2024-02-04T01:30:04;7.70;99.90
3086;DHT22;52812;48.960;9.108;2024-02-04T01:32:30;7.80;99.90
3086;DHT22;52812;48.960;9.108;2024-02-04T01:34:57;7.80;99.90
3086;DHT22;52812;48.960;9.108;2024-02-04T01:37:22;7.80;99.90
3086;DHT22;52812;48.960;9.108;2024-02-04T01:39:49;7.80;99.90
3086;DHT22;52812;48.960;9.108;2024-02-04T01:42:14;7.90;99.90
3086;DHT22;52812;48.960;9.108;2024-02-04T01:44:40;7.90;99.90
3086;DHT22;52812;48.960;9.108;2024-02-04T01:47:06;7.90;99.90
3086;DHT22;52812;48.960;9.108;2024-02-04T01:49:31;7.90;99.90
3086;DHT22;52812;48.960;9.108;2024-02-04T01:51:58;7.90;99.90
3086;DHT22;52812;48.960;9.108;2024-02-04T01:54:24;7.90;99.90
3086;DHT22;52812;48.960;9.108;2024-02-04T01:56:50;7.90;99.90
3086;DHT22;52812;48.960;9.108;2024-02-04T01:59:17;8.00;99.90
3086;DHT22;52812;48.960;9.108;2024-02-04T02:01:44;8.00;99.90
3086;DHT22;52812;48.960;9.108;2024-02-04T02:04:10;8.00;99.90
3086;DHT22;52812;48.960;9.108;2024-02-04T02:06:36;8.00;99.90
3086;DHT22;52812;48.960;9.108;2024-02-04T02:09:07;8.00;99.90
3086;DHT22;52812;48.960;9.108;2024-02-04T02:11:40;8.00;99.90
3086;DHT22;52812;48.960;9.108;2024-02-04T02:14:13;8.00;99.90
3086;DHT22;52812;48.960;9.108;2024-02-04T02:16:39;8.00;99.90
3086;DHT22;52812;48.960;9.108;2024-02-04T02:22:17;8.00;99.90
3086;DHT22;52812;48.960;9.108;2024-02-04T02:24:48;8.00;99.90
3086;DHT22;52812;48.960;9.108;2024-02-04T02:27:15;8.10;99.90
3086;DHT22;52812;48.960;9.108;2024-02-04T02:29:41;8.10;99.90
3086;DHT22;52812;48.960;9.108;2024-02-04T02:32:07;8.10;99.90
3086;DHT22;52812;48.960;9.108;2024-02-04T02:34:33;8.10;99.90
3086;DHT22;52812;48.960;9.108;2024-02-04T02:40:08;8.10;99.90
3086;DHT22;52812;48.960;9.108;2024-02-04T02:42:37;8.10;99.90
3086;DHT22;52812;48.960;9.108;2024-02-04T02:45:04;8.10;99.90
3086;DHT22;52812;48.960;9.108;2024-02-04T02:47:30;8.10;99.90
3086;DHT22;52812;48.960;9.108;2024-02-04T02:49:57;8.10;99.90
3086;DHT22;52812;48.960;9.108;2024-02-04T02:52:23;8.10;99.90
3086;DHT22;52812;48.960;9.108;2024-02-04T02:54:48;8.10;99.90
3086;DHT22;52812;48.960;9.108;2024-02-04T02:57:14;8.10;99.90
3086;DHT22;52812;48.960;9.108;2024-02-04T02:59:40;8.10;99.90
3086;DHT22;52812;48.960;9.108;2024-02-04T03:02:05;8.10;99.90
3086;DHT22;52812;48.960;9.108;2024-02-04T03:04:31;8.20;99.90
3086;DHT22;52812;48.960;9.108;2024-02-04T03:06:57;8.20;99.90
3086;DHT22;52812;48.960;9.108;2024-02-04T03:09:23;8.10;99.90
3086;DHT22;52812;48.960;9.108;2024-02-04T03:11:48;8.10;99.90
3086;DHT22;52812;48.960;9.108;2024-02-04T03:14:16;8.20;99.90
3086;DHT22;52812;48.960;9.108;2024-02-04T03:16:44;8.20;99.90
3086;DHT22;52812;48.960;9.108;2024-02-04T03:19:10;8.20;99.90
3086;DHT22;52812;48.960;9.108;2024-02-04T03:21:35;8.20;99.90
3086;DHT22;52812;48.960;9.108;2024-02-04T03:24:01;8.20;99.90
3086;DHT22;52812;48.960;9.108;2024-02-04T03:26:27;8.30;99.90
3086;DHT22;52812;48.960;9.108;2024-02-04T03:28:53;8.20;99.90
3086;DHT22;52812;48.960;9.108;2024-02-04T03:31:23;8.20;99.90
3086;DHT22;52812;48.960;9.108;2024-02-04T03:33:49;8.20;99.90
3086;DHT22;52812;48.960;9.108;2024-02-04T03:36:19;8.30;99.90
3086;DHT22;52812;48.960;9.108;2024-02-04T03:38:44;8.30;99.90
3086;DHT22;52812;48.960;9.108;2024-02-04T03:41:10;8.20;99.90
3086;DHT22;52812;48.960;9.108;2024-02-04T03:43:36;8.20;99.90
3086;DHT22;52812;48.960;9.108;2024-02-04T03:46:02;8.20;99.90
3086;DHT22;52812;48.960;9.108;2024-02-04T03:48:28;8.20;99.90
3086;DHT22;52812;48.960;9.108;2024-02-04T03:50:54;8.20;99.90
3086;DHT22;52812;48.960;9.108;2024-02-04T03:53:19;8.20;99.90
3086;DHT22;52812;48.960;9.108;2024-02-04T03:55:48;8.20;99.90
3086;DHT22;52812;48.960;9.108;2024-02-04T03:58:14;8.30;99.90
3086;DHT22;52812;48.960;9.108;2024-02-04T04:00:40;8.30;99.90
3086;DHT22;52812;48.960;9.108;2024-02-04T04:03:05;8.30;99.90
3086;DHT22;52812;48.960;9.108;2024-02-04T04:05:31;8.20;99.90
3086;DHT22;52812;48.960;9.108;2024-02-04T04:07:57;8.20;99.90
3086;DHT22;52812;48.960;9.108;2024-02-04T04:10:22;8.20;99.90
3086;DHT22;52812;48.960;9.108;2024-02-04T04:12:48;8.20;99.90
3086;DHT22;52812;48.960;9.108;2024-02-04T04:15:14;8.20;99.90
3086;DHT22;52812;48.960;9.108;2024-02-04T04:17:40;8.20;99.90
3086;DHT22;52812;48.960;9.108;2024-02-04T04:20:07;8.30;99.90
3086;DHT22;52812;48.960;9.108;2024-02-04T04:22:33;8.30;99.90
3086;DHT22;52812;48.960;9.108;2024-02-04T04:24:58;8.30;99.90
3086;DHT22;52812;48.960;9.108;2024-02-04T04:27:24;8.30;99.90
3086;DHT22;52812;48.960;9.108;2024-02-04T04:29:50;8.40;99.90
3086;DHT22;52812;48.960;9.108;2024-02-04T04:32:16;8.40;99.90
3086;DHT22;52812;48.960;9.108;2024-02-04T04:34:42;8.40;99.90
3086;DHT22;52812;48.960;9.108;2024-02-04T04:37:07;8.50;99.90
3086;DHT22;52812;48.960;9.108;2024-02-04T04:39:33;8.40;99.90
3086;DHT22;52812;48.960;9.108;2024-02-04T04:41:58;8.40;99.90
3086;DHT22;52812;48.960;9.108;2024-02-04T04:44:24;8.40;99.90
3086;DHT22;52812;48.960;9.108;2024-02-04T04:46:53;8.40;99.90
3086;DHT22;52812;48.960;9.108;2024-02-04T04:49:18;8.40;99.90
3086;DHT22;52812;48.960;9.108;2024-02-04T04:51:47;8.40;99.90
3086;DHT22;52812;48.960;9.108;2024-02-04T04:54:14;8.50;99.90
3086;DHT22;52812;48.960;9.108;2024-02-04T04:56:40;8.40;99.90
3086;DHT22;52812;48.960;9.108;2024-02-04T04:59:09;8.40;99.90
3086;DHT22;52812;48.960;9.108;2024-02-04T05:01:34;8.40;99.90
3086;DHT22;52812;48.960;9.108;2024-02-04T05:04:00;8.40;99.90
3086;DHT22;52812;48.960;9.108;2024-02-04T05:06:26;8.40;99.90
3086;DHT22;52812;48.960;9.108;2024-02-04T05:08:52;8.40;99.90
3086;DHT22;52812;48.960;9.108;2024-02-04T05:11:18;8.40;99.90
3086;DHT22;52812;48.960;9.108;2024-02-04T05:13:43;8.40;99.90
3086;DHT22;52812;48.960;9.108;2024-02-04T05:16:09;8.40;99.90
3086;DHT22;52812;48.960;9.108;2024-02-04T05:18:35;8.40;99.90
3086;DHT22;52812;48.960;9.108;2024-02-04T05:21:02;8.40;99.90
3086;DHT22;52812;48.960;9.108;2024-02-04T05:23:28;8.40;99.90
3086;DHT22;52812;48.960;9.108;2024-02-04T05:25:54;8.40;99.90
3086;DHT22;52812;48.960;9.108;2024-02-04T05:28:19;8.40;99.90
3086;DHT22;52812;48.960;9.108;2024-02-04T05:30:45;8.40;99.90
3086;DHT22;52812;48.960;9.108;2024-02-04T05:33:14;8.40;99.90
3086;DHT22;52812;48.960;9.108;2024-02-04T05:35:41;8.40;99.90
3086;DHT22;52812;48.960;9.108;2024-02-04T05:38:08;8.40;99.90
3086;DHT22;52812;48.960;9.108;2024-02-04T05:40:34;8.40;99.90
3086;DHT22;52812;48.960;9.108;2024-02-04T05:42:59;8.40;99.90
3086;DHT22;52812;48.960;9.108;2024-02-04T05:45:25;8.40;99.90
3086;DHT22;52812;48.960;9.108;2024-02-04T05:47:51;8.40;99.90
3086;DHT22;52812;48.960;9.108;2024-02-04T05:50:16;8.40;99.90
3086;DHT22;52812;48.960;9.108;2024-02-04T05:52:42;8.40;99.90
3086;DHT22;52812;48.960;9.108;2024-02-04T05:55:10;8.50;99.90
3086;DHT22;52812;48.960;9.108;2024-02-04T05:57:35;8.50;99.90
3086;DHT22;52812;48.960;9.108;2024-02-04T06:00:01;8.50;99.90
3086;DHT22;52812;48.960;9.108;2024-02-04T06:02:27;8.50;99.90
3086;DHT22;52812;48.960;9.108;2024-02-04T06:04:52;8.50;99.90
3086;DHT22;52812;48.960;9.108;2024-02-04T06:07:18;8.50;99.90
3086;DHT22;52812;48.960;9.108;2024-02-04T06:09:44;8.60;99.90
3086;DHT22;52812;48.960;9.108;2024-02-04T06:12:09;8.60;99.90
3086;DHT22;52812;48.960;9.108;2024-02-04T06:14:35;8.70;99.90
3086;DHT22;52812;48.960;9.108;2024-02-04T06:17:05;8.70;99.90
3086;DHT22;52812;48.960;9.108;2024-02-04T06:19:31;8.70;99.90
3086;DHT22;52812;48.960;9.108;2024-02-04T06:21:57;8.70;99.90
3086;DHT22;52812;48.960;9.108;2024-02-04T06:24:22;8.70;99.90
3086;DHT22;52812;48.960;9.108;2024-02-04T06:26:48;8.70;99.90
3086;DHT22;52812;48.960;9.108;2024-02-04T06:29:14;8.70;99.90
3086;DHT22;52812;48.960;9.108;2024-02-04T06:31:39;8.70;99.90
3086;DHT22;52812;48.960;9.108;2024-02-04T06:34:05;8.70;99.90
3086;DHT22;52812;48.960;9.108;2024-02-04T06:36:30;8.70;99.90
3086;DHT22;52812;48.960;9.108;2024-02-04T06:38:59;8.70;99.90
3086;DHT22;52812;48.960;9.108;2024-02-04T06:41:25;8.70;99.90
3086;DHT22;52812;48.960;9.108;2024-02-04T06:43:50;8.70;99.90
3086;DHT22;52812;48.960;9.108;2024-02-04T06:46:26;8.70;99.90
3086;DHT22;52812;48.960;9.108;2024-02-04T06:48:53;8.70;99.90
3086;DHT22;52812;48.960;9.108;2024-02-04T06:51:19;8.70;99.90
3086;DHT22;52812;48.960;9.108;2024-02-04T06:53:45;8.70;99.90
3086;DHT22;52812;48.960;9.108;2024-02-04T06:56:11;8.70;99.90
3086;DHT22;52812;48.960;9.108;2024-02-04T06:58:41;8.60;99.90
3086;DHT22;52812;48.960;9.108;2024-02-04T07:01:07;8.60;99.90
3086;DHT22;52812;48.960;9.108;2024-02-04T07:03:33;8.60;99.90
3086;DHT22;52812;48.960;9.108;2024-02-04T07:05:59;8.60;99.90
3086;DHT22;52812;48.960;9.108;2024-02-04T07:08:25;8.60;99.90
3086;DHT22;52812;48.960;9.108;2024-02-04T07:10:51;8.60;99.90
3086;DHT22;52812;48.960;9.108;2024-02-04T07:13:17;8.60;99.90
3086;DHT22;52812;48.960;9.108;2024-02-04T07:15:43;8.70;99.90
3086;DHT22;52812;48.960;9.108;2024-02-04T07:18:09;8.70;99.90
3086;DHT22;52812;48.960;9.108;2024-02-04T07:20:35;8.70;99.90
3086;DHT22;52812;48.960;9.108;2024-02-04T07:23:01;8.70;99.90
3086;DHT22;52812;48.960;9.108;2024-02-04T07:25:27;8.70;99.90
3086;DHT22;52812;48.960;9.108;2024-02-04T07:27:53;8.80;99.90
3086;DHT22;52812;48.960;9.108;2024-02-04T07:30:19;8.80;99.90
3086;DHT22;52812;48.960;9.108;2024-02-04T07:32:46;8.80;99.90
3086;DHT22;52812;48.960;9.108;2024-02-04T07:35:12;8.90;99.90
3086;DHT22;52812;48.960;9.108;2024-02-04T07:37:38;8.90;99.90
3086;DHT22;52812;48.960;9.108;2024-02-04T07:40:04;9.00;99.90
3086;DHT22;52812;48.960;9.108;2024-02-04T07:42:32;9.00;99.90
3086;DHT22;52812;48.960;9.108;2024-02-04T07:44:58;9.10;99.90
3086;DHT22;52812;48.960;9.108;2024-02-04T07:47:24;9.10;99.90
3086;DHT22;52812;48.960;9.108;2024-02-04T07:49:50;9.10;99.90
3086;DHT22;52812;48.960;9.108;2024-02-04T07:52:16;9.10;99.90
3086;DHT22;52812;48.960;9.108;2024-02-04T07:54:41;9.10;99.90
3086;DHT22;52812;48.960;9.108;2024-02-04T07:57:11;9.10;99.90
3086;DHT22;52812;48.960;9.108;2024-02-04T07:59:37;9.20;99.90
3086;DHT22;52812;48.960;9.108;2024-02-04T08:02:06;9.20;99.90
3086;DHT22;52812;48.960;9.108;2024-02-04T08:04:32;9.20;99.90
3086;DHT22;52812;48.960;9.108;2024-02-04T08:06:58;9.20;99.90
3086;DHT22;52812;48.960;9.108;2024-02-04T08:09:23;9.20;99.90
3086;DHT22;52812;48.960;9.108;2024-02-04T08:11:49;9.20;99.90
3086;DHT22;52812;48.960;9.108;2024-02-04T08:14:15;9.10;99.90
3086;DHT22;52812;48.960;9.108;2024-02-04T08:16:43;9.20;99.90
3086;DHT22;52812;48.960;9.108;2024-02-04T08:19:08;9.20;99.90
3086;DHT22;52812;48.960;9.108;2024-02-04T08:21:34;9.10;99.90
3086;DHT22;52812;48.960;9.108;2024-02-04T08:24:00;9.10;99.90
3086;DHT22;52812;48.960;9.108;2024-02-04T08:26:25;9.10;99.90
3086;DHT22;52812;48.960;9.108;2024-02-04T08:28:51;9.10;99.90
3086;DHT22;52812;48.960;9.108;2024-02-04T08:31:16;9.10;99.90
3086;DHT22;52812;48.960;9.108;2024-02-04T08:33:42;9.10;99.90
3086;DHT22;52812;48.960;9.108;2024-02-04T08:36:08;9.20;99.90
3086;DHT22;52812;48.960;9.108;2024-02-04T08:38:36;9.20;99.90
3086;DHT22;52812;48.960;9.108;2024-02-04T08:41:03;9.30;99.90
3086;DHT22;52812;48.960;9.108;2024-02-04T08:43:29;9.30;99.90
3086;DHT22;52812;48.960;9.108;2024-02-04T08:45:54;9.30;99.90
3086;DHT22;52812;48.960;9.108;2024-02-04T08:48:20;9.30;99.90
3086;DHT22;52812;48.960;9.108;2024-02-04T08:50:49;9.40;99.90
3086;DHT22;52812;48.960;9.108;2024-02-04T08:53:15;9.50;99.90
3086;DHT22;52812;48.960;9.108;2024-02-04T08:55:40;9.50;99.90
3086;DHT22;52812;48.960;9.108;2024-02-04T08:58:06;9.60;99.90
3086;DHT22;52812;48.960;9.108;2024-02-04T09:00:32;9.60;99.90
3086;DHT22;52812;48.960;9.108;2024-02-04T09:02:57;9.60;99.90
3086;DHT22;52812;48.960;9.108;2024-02-04T09:05:23;9.60;99.90
3086;DHT22;52812;48.960;9.108;2024-02-04T09:07:49;9.60;99.90
3086;DHT22;52812;48.960;9.108;2024-02-04T09:10:15;9.70;99.90
3086;DHT22;52812;48.960;9.108;2024-02-04T09:12:40;9.70;99.90
3086;DHT22;52812;48.960;9.108;2024-02-04T09:15:06;9.70;99.90
3086;DHT22;52812;48.960;9.108;2024-02-04T09:17:32;9.80;99.90
3086;DHT22;52812;48.960;9.108;2024-02-04T09:20:01;9.80;99.90
3086;DHT22;52812;48.960;9.108;2024-02-04T09:22:27;9.90;99.90
3086;DHT22;52812;48.960;9.108;2024-02-04T09:24:53;9.90;99.90
3086;DHT22;52812;48.960;9.108;2024-02-04T09:27:19;10.00;99.90
3086;DHT22;52812;48.960;9.108;2024-02-04T09:29:45;10.30;99.90
3086;DHT22;52812;48.960;9.108;2024-02-04T09:32:10;10.40;99.90
3086;DHT22;52812;48.960;9.108;2024-02-04T09:34:36;10.50;99.90
3086;DHT22;52812;48.960;9.108;2024-02-04T09:37:02;10.40;99.90
3086;DHT22;52812;48.960;9.108;2024-02-04T09:39:28;10.50;99.90
3086;DHT22;52812;48.960;9.108;2024-02-04T09:41:55;10.70;99.90
3086;DHT22;52812;48.960;9.108;2024-02-04T09:44:21;10.70;99.90
3086;DHT22;52812;48.960;9.108;2024-02-04T09:46:48;10.70;99.90
3086;DHT22;52812;48.960;9.108;2024-02-04T09:49:14;10.60;99.90
3086;DHT22;52812;48.960;9.108;2024-02-04T09:51:40;10.60;99.90
3086;DHT22;52812;48.960;9.108;2024-02-04T09:54:09;10.60;99.90
3086;DHT22;52812;48.960;9.108;2024-02-04T09:56:35;10.60;99.90
3086;DHT22;52812;48.960;9.108;2024-02-04T09:59:02;10.80;99.90
3086;DHT22;52812;48.960;9.108;2024-02-04T10:01:28;10.80;99.90
3086;DHT22;52812;48.960;9.108;2024-02-04T10:03:54;10.90;99.90
3086;DHT22;52812;48.960;9.108;2024-02-04T10:06:20;10.90;99.90
3086;DHT22;52812;48.960;9.108;2024-02-04T10:08:46;10.80;99.90
3086;DHT22;52812;48.960;9.108;2024-02-04T10:11:16;10.80;99.90
3086;DHT22;52812;48.960;9.108;2024-02-04T10:13:45;10.90;99.90
3086;DHT22;52812;48.960;9.108;2024-02-04T10:16:12;10.80;99.90
3086;DHT22;52812;48.960;9.108;2024-02-04T10:18:40;10.80;99.90
3086;DHT22;52812;48.960;9.108;2024-02-04T10:21:17;10.70;99.90
3086;DHT22;52812;48.960;9.108;2024-02-04T10:23:47;10.80;99.90
3086;DHT22;52812;48.960;9.108;2024-02-04T10:26:13;10.80;99.90
3086;DHT22;52812;48.960;9.108;2024-02-04T10:28:39;10.80;99.90
3086;DHT22;52812;48.960;9.108;2024-02-04T10:31:08;10.70;99.90
3086;DHT22;52812;48.960;9.108;2024-02-04T10:33:34;10.70;99.90
3086;DHT22;52812;48.960;9.108;2024-02-04T10:36:00;10.70;99.90
3086;DHT22;52812;48.960;9.108;2024-02-04T10:38:25;10.70;99.90
3086;DHT22;52812;48.960;9.108;2024-02-04T10:40:53;10.70;99.90
3086;DHT22;52812;48.960;9.108;2024-02-04T10:43:21;10.70;99.90
3086;DHT22;52812;48.960;9.108;2024-02-04T10:45:47;10.70;99.90
3086;DHT22;52812;48.960;9.108;2024-02-04T10:48:15;10.60;99.90
3086;DHT22;52812;48.960;9.108;2024-02-04T10:50:45;10.60;99.90
3086;DHT22;52812;48.960;9.108;2024-02-04T10:53:15;10.40;99.90
3086;DHT22;52812;48.960;9.108;2024-02-04T10:55:43;10.50;99.90
3086;DHT22;52812;48.960;9.108;2024-02-04T10:58:12;10.40;99.90
3086;DHT22;52812;48.960;9.108;2024-02-04T11:00:40;10.40;99.90
3086;DHT22;52812;48.960;9.108;2024-02-04T11:03:06;10.60;99.90
3086;DHT22;52812;48.960;9.108;2024-02-04T11:05:34;10.60;99.90
3086;DHT22;52812;48.960;9.108;2024-02-04T11:08:02;10.50;99.90
3086;DHT22;52812;48.960;9.108;2024-02-04T11:10:30;10.50;99.90
3086;DHT22;52812;48.960;9.108;2024-02-04T11:12:58;10.60;99.90
3086;DHT22;52812;48.960;9.108;2024-02-04T11:15:28;10.60;99.90
3086;DHT22;52812;48.960;9.108;2024-02-04T11:24:43;10.40;99.90
3086;DHT22;52812;48.960;9.108;2024-02-04T11:27:10;10.30;99.90
3086;DHT22;52812;48.960;9.108;2024-02-04T11:29:37;10.30;99.90
3086;DHT22;52812;48.960;9.108;2024-02-04T11:32:03;10.30;99.90
3086;DHT22;52812;48.960;9.108;2024-02-04T11:34:30;10.30;99.90
3086;DHT22;52812;48.960;9.108;2024-02-04T11:36:56;10.30;99.90
3086;DHT22;52812;48.960;9.108;2024-02-04T11:39:24;10.40;99.90
3086;DHT22;52812;48.960;9.108;2024-02-04T11:41:50;10.30;99.90
3086;DHT22;52812;48.960;9.108;2024-02-04T11:46:48;10.50;99.90
3086;DHT22;52812;48.960;9.108;2024-02-04T11:49:17;10.50;99.90
3086;DHT22;52812;48.960;9.108;2024-02-04T11:51:46;10.50;99.90
3086;DHT22;52812;48.960;9.108;2024-02-04T11:54:15;10.60;99.90
3086;DHT22;52812;48.960;9.108;2024-02-04T11:56:42;10.50;99.90
3086;DHT22;52812;48.960;9.108;2024-02-04T11:59:08;10.50;99.90
3086;DHT22;52812;48.960;9.108;2024-02-04T12:01:35;10.50;99.90
3086;DHT22;52812;48.960;9.108;2024-02-04T12:04:16;10.50;99.90
3086;DHT22;52812;48.960;9.108;2024-02-04T12:06:43;10.50;99.90
3086;DHT22;52812;48.960;9.108;2024-02-04T12:09:09;10.60;99.90
3086;DHT22;52812;48.960;9.108;2024-02-04T12:11:39;10.60;99.90
3086;DHT22;52812;48.960;9.108;2024-02-04T12:14:05;10.70;99.90
3086;DHT22;52812;48.960;9.108;2024-02-04T12:16:33;10.70;99.90
3086;DHT22;52812;48.960;9.108;2024-02-04T12:19:01;10.80;99.90
3086;DHT22;52812;48.960;9.108;2024-02-04T12:21:29;10.80;99.90
3086;DHT22;52812;48.960;9.108;2024-02-04T12:23:55;10.80;99.90
3086;DHT22;52812;48.960;9.108;2024-02-04T12:26:22;10.80;99.90
3086;DHT22;52812;48.960;9.108;2024-02-04T12:28:49;10.80;99.90
3086;DHT22;52812;48.960;9.108;2024-02-04T12:31:19;10.90;99.90
3086;DHT22;52812;48.960;9.108;2024-02-04T12:33:53;11.10;99.90
3086;DHT22;52812;48.960;9.108;2024-02-04T12:36:25;11.10;99.90
3086;DHT22;52812;48.960;9.108;2024-02-04T12:38:53;11.10;99.90
3086;DHT22;52812;48.960;9.108;2024-02-04T12:41:20;11.10;99.90
3086;DHT22;52812;48.960;9.108;2024-02-04T12:43:50;11.10;99.90
3086;DHT22;52812;48.960;9.108;2024-02-04T12:46:16;11.20;99.90
3086;DHT22;52812;48.960;9.108;2024-02-04T12:48:42;11.10;99.90
3086;DHT22;52812;48.960;9.108;2024-02-04T12:51:08;11.10;99.90
3086;DHT22;52812;48.960;9.108;2024-02-04T12:53:37;11.20;99.90
3086;DHT22;52812;48.960;9.108;2024-02-04T12:56:06;11.30;99.90
3086;DHT22;52812;48.960;9.108;2024-02-04T12:58:31;11.30;99.90
3086;DHT22;52812;48.960;9.108;2024-02-04T13:01:06;11.30;99.90
3086;DHT22;52812;48.960;9.108;2024-02-04T13:03:32;11.20;99.90
3086;DHT22;52812;48.960;9.108;2024-02-04T13:05:58;11.20;99.90
3086;DHT22;52812;48.960;9.108;2024-02-04T13:08:27;11.20;99.90
3086;DHT22;52812;48.960;9.108;2024-02-04T13:10:56;11.20;99.90
3086;DHT22;52812;48.960;9.108;2024-02-04T13:13:23;11.30;99.90
3086;DHT22;52812;48.960;9.108;2024-02-04T13:15:57;11.20;99.90
3086;DHT22;52812;48.960;9.108;2024-02-04T13:18:23;11.30;99.90
3086;DHT22;52812;48.960;9.108;2024-02-04T13:20:48;11.30;99.90
3086;DHT22;52812;48.960;9.108;2024-02-04T13:23:14;11.30;99.90
3086;DHT22;52812;48.960;9.108;2024-02-04T13:25:40;11.10;99.90
3086;DHT22;52812;48.960;9.108;2024-02-04T13:28:05;11.00;99.90
3086;DHT22;52812;48.960;9.108;2024-02-04T13:30:31;10.90;99.90
3086;DHT22;52812;48.960;9.108;2024-02-04T13:32:57;10.80;99.90
3086;DHT22;52812;48.960;9.108;2024-02-04T13:35:23;10.70;99.90
3086;DHT22;52812;48.960;9.108;2024-02-04T13:37:49;10.70;99.90
3086;DHT22;52812;48.960;9.108;2024-02-04T13:40:19;10.70;99.90
3086;DHT22;52812;48.960;9.108;2024-02-04T13:42:45;10.70;99.90
3086;DHT22;52812;48.960;9.108;2024-02-04T13:45:12;10.70;99.90
3086;DHT22;52812;48.960;9.108;2024-02-04T13:47:41;10.70;99.90
3086;DHT22;52812;48.960;9.108;2024-02-04T13:50:07;10.70;99.90
3086;DHT22;52812;48.960;9.108;2024-02-04T13:52:37;10.60;99.90
3086;DHT22;52812;48.960;9.108;2024-02-04T13:55:03;10.50;99.90
3086;DHT22;52812;48.960;9.108;2024-02-04T13:57:35;10.60;99.90
3086;DHT22;52812;48.960;9.108;2024-02-04T14:00:02;10.50;99.90
3086;DHT22;52812;48.960;9.108;2024-02-04T14:02:29;10.50;99.90
3086;DHT22;52812;48.960;9.108;2024-02-04T14:04:56;10.50;99.90
3086;DHT22;52812;48.960;9.108;2024-02-04T14:07:22;10.50;99.90
3086;DHT22;52812;48.960;9.108;2024-02-04T14:09:48;10.40;99.90
3086;DHT22;52812;48.960;9.108;2024-02-04T14:12:13;10.50;99.90
3086;DHT22;52812;48.960;9.108;2024-02-04T14:14:39;10.60;99.90
3086;DHT22;52812;48.960;9.108;2024-02-04T14:17:05;10.60;99.90
3086;DHT22;52812;48.960;9.108;2024-02-04T14:19:31;10.70;99.90
3086;DHT22;52812;48.960;9.108;2024-02-04T14:21:57;10.60;99.90
3086;DHT22;52812;48.960;9.108;2024-02-04T14:24:22;10.60;99.90
3086;DHT22;52812;48.960;9.108;2024-02-04T14:26:48;10.50;99.90
3086;DHT22;52812;48.960;9.108;2024-02-04T14:29:14;10.40;99.90
3086;DHT22;52812;48.960;9.108;2024-02-04T14:31:40;10.40;99.90
3086;DHT22;52812;48.960;9.108;2024-02-04T14:34:05;10.40;99.90
3086;DHT22;52812;48.960;9.108;2024-02-04T14:36:31;10.30;99.90
3086;DHT22;52812;48.960;9.108;2024-02-04T14:38:57;10.30;99.90
3086;DHT22;52812;48.960;9.108;2024-02-04T14:41:26;10.30;99.90
3086;DHT22;52812;48.960;9.108;2024-02-04T14:43:52;10.20;99.90
3086;DHT22;52812;48.960;9.108;2024-02-04T14:46:18;10.10;99.90
3086;DHT22;52812;48.960;9.108;2024-02-04T14:48:44;10.10;99.90
3086;DHT22;52812;48.960;9.108;2024-02-04T14:51:09;10.10;99.90
3086;DHT22;52812;48.960;9.108;2024-02-04T14:53:36;10.00;99.90
3086;DHT22;52812;48.960;9.108;2024-02-04T14:56:02;9.90;99.90
3086;DHT22;52812;48.960;9.108;2024-02-04T14:58:27;9.90;99.90
3086;DHT22;52812;48.960;9.108;2024-02-04T15:00:53;9.80;99.90
3086;DHT22;52812;48.960;9.108;2024-02-04T15:03:19;9.80;99.90
3086;DHT22;52812;48.960;9.108;2024-02-04T15:05:44;9.80;99.90
3086;DHT22;52812;48.960;9.108;2024-02-04T15:08:10;9.80;99.90
3086;DHT22;52812;48.960;9.108;2024-02-04T15:10:36;9.70;99.90
3086;DHT22;52812;48.960;9.108;2024-02-04T15:13:03;9.70;99.90
3086;DHT22;52812;48.960;9.108;2024-02-04T15:15:29;9.60;99.90
3086;DHT22;52812;48.960;9.108;2024-02-04T15:17:55;9.60;99.90
3086;DHT22;52812;48.960;9.108;2024-02-04T15:20:21;9.60;99.90
3086;DHT22;52812;48.960;9.108;2024-02-04T15:22:48;9.60;99.90
3086;DHT22;52812;48.960;9.108;2024-02-04T15:25:14;9.50;99.90
3086;DHT22;52812;48.960;9.108;2024-02-04T15:27:43;9.50;99.90
3086;DHT22;52812;48.960;9.108;2024-02-04T15:30:13;9.50;99.90
3086;DHT22;52812;48.960;9.108;2024-02-04T15:32:39;9.50;99.90
3086;DHT22;52812;48.960;9.108;2024-02-04T15:35:05;9.50;99.90
3086;DHT22;52812;48.960;9.108;2024-02-04T15:37:32;9.40;99.90
3086;DHT22;52812;48.960;9.108;2024-02-04T15:39:58;9.40;99.90
3086;DHT22;52812;48.960;9.108;2024-02-04T15:42:23;9.40;99.90
3086;DHT22;52812;48.960;9.108;2024-02-04T15:44:49;9.40;99.90
3086;DHT22;52812;48.960;9.108;2024-02-04T15:47:15;9.40;99.90
3086;DHT22;52812;48.960;9.108;2024-02-04T15:49:42;9.40;99.90
3086;DHT22;52812;48.960;9.108;2024-02-04T15:52:08;9.40;99.90
3086;DHT22;52812;48.960;9.108;2024-02-04T15:54:34;9.40;99.90
3086;DHT22;52812;48.960;9.108;2024-02-04T15:57:06;9.40;99.90
3086;DHT22;52812;48.960;9.108;2024-02-04T15:59:55;9.40;99.90
3086;DHT22;52812;48.960;9.108;2024-02-04T16:02:25;9.30;99.90
3086;DHT22;52812;48.960;9.108;2024-02-04T16:04:52;9.30;99.90
3086;DHT22;52812;48.960;9.108;2024-02-04T16:07:19;9.30;99.90
3086;DHT22;52812;48.960;9.108;2024-02-04T16:09:47;9.30;99.90